Time;durP1;ratioP1;P1;durP2;ratioP2;P2;SDS_P1;SDS_P2;PMS_P1;PMS_P2;Temp;Humidity;BMP_temperature;BMP_pressure;BME280_temperature;BME280_humidity;BME280_pressure;Samples;Min_cycle;Max_cycle;Signal;HPM_P1;HPM_P2
2022/09/12 00:02:06;;;;;;;2.20;1.80;;;;;;;17.09;79.04;98985.88;4923367;29;20093;-94
2022/09/12 00:04:32;;;;;;;3.10;1.60;;;;;;;17.03;79.45;98993.38;4940581;29;20023;-94
2022/09/12 00:06:57;;;;;;;1.55;1.30;;;;;;;17.00;78.25;98987.78;4923458;29;20027;-93
2022/09/12 00:09:23;;;;;;;1.63;1.30;;;;;;;16.94;79.02;98985.22;4923731;29;20026;-94
2022/09/12 00:11:48;;;;;;;2.15;1.25;;;;;;;16.99;78.01;98994.34;4923809;29;20026;-94
2022/09/12 00:14:15;;;;;;;1.80;1.50;;;;;;;16.86;78.95;98971.63;4924076;29;20030;-94
2022/09/12 00:16:42;;;;;;;2.10;1.58;;;;;;;16.91;78.38;98990.50;4923094;29;20118;-93
2022/09/12 00:19:08;;;;;;;2.05;1.40;;;;;;;16.84;77.70;98979.31;4962567;28;20037;-95
2022/09/12 00:21:34;;;;;;;2.13;1.75;;;;;;;16.88;78.84;98981.06;4965098;28;20025;-94
2022/09/12 00:24:01;;;;;;;2.47;1.40;;;;;;;16.87;78.91;98973.22;4964287;28;20030;-95
2022/09/12 00:26:27;;;;;;;2.30;1.60;;;;;;;17.12;77.70;98990.66;4996216;28;20133;-94
2022/09/12 00:28:53;;;;;;;5.28;1.80;;;;;;;17.25;77.09;98988.91;4963202;28;20038;-94
2022/09/12 00:31:22;;;;;;;3.17;1.65;;;;;;;17.24;77.92;99003.59;4995347;28;20038;-94
2022/09/12 00:33:48;;;;;;;5.13;2.30;;;;;;;17.14;79.09;98982.97;4980224;28;20030;-93
2022/09/12 00:36:19;;;;;;;3.08;1.58;;;;;;;17.17;78.87;99006.81;4963657;28;20030;-94
2022/09/12 00:38:46;;;;;;;4.65;1.88;;;;;;;17.13;78.19;98994.97;4995939;28;20393;-94
2022/09/12 00:41:29;;;;;;;2.33;1.40;;;;;;;17.08;78.41;98979.63;4980310;28;20066;-94
2022/09/12 00:43:58;;;;;;;2.40;1.30;;;;;;;17.10;77.94;98993.72;4996305;28;20030;-94
2022/09/12 00:46:36;;;;;;;1.40;1.17;;;;;;;17.22;77.43;99012.09;4979620;28;20428;-94
2022/09/12 00:49:34;;;;;;;1.75;1.20;;;;;;;17.36;76.40;99007.28;4995914;28;20499;-95
2022/09/12 00:52:13;;;;;;;4.75;1.10;;;;;;;17.53;73.69;99011.09;4979821;28;20042;-94
2022/09/12 00:54:50;;;;;;;1.55;1.10;;;;;;;17.44;73.19;98988.53;4980947;28;20117;-94
2022/09/12 00:57:16;;;;;;;1.70;0.80;;;;;;;17.52;73.28;98993.97;4960645;28;20070;-94
2022/09/12 01:00:10;;;;;;;1.20;0.82;;;;;;;17.64;73.14;98997.94;4976556;28;20035;-94
2022/09/12 01:02:36;;;;;;;1.60;1.13;;;;;;;17.72;72.85;98995.19;4922029;29;20050;-94
2022/09/12 01:05:02;;;;;;;2.88;0.95;;;;;;;17.74;71.89;98979.34;4920548;29;20051;-94
2022/09/12 01:07:29;;;;;;;1.10;1.00;;;;;;;17.83;72.20;98994.88;4937438;29;20279;-94
2022/09/12 01:09:55;;;;;;;1.30;0.80;;;;;;;17.77;73.25;98988.78;4920627;29;20036;-93
2022/09/12 01:12:21;;;;;;;2.15;1.23;;;;;;;17.58;72.93;98960.00;4921012;29;20043;-94
2022/09/12 01:14:47;;;;;;;2.20;1.02;;;;;;;17.70;72.59;98964.78;4919940;29;20039;-94
2022/09/12 01:17:13;;;;;;;2.33;1.15;;;;;;;17.80;72.27;98973.69;4920730;29;20171;-95
2022/09/12 01:20:07;;;;;;;1.48;0.88;;;;;;;17.86;70.71;98959.59;4921019;29;20061;-94
2022/09/12 01:23:01;;;;;;;1.35;1.00;;;;;;;17.97;71.16;98957.28;4921462;29;20040;-94
2022/09/12 01:26:00;;;;;;;1.23;0.95;;;;;;;17.97;69.72;98941.78;4913978;29;20518;-94
2022/09/12 01:28:36;;;;;;;1.60;0.90;;;;;;;17.96;69.84;98928.47;4883255;29;20048;-94
2022/09/12 01:31:18;;;;;;;2.13;1.00;;;;;;;17.85;72.29;98941.66;4919978;29;20051;-94
2022/09/12 01:34:05;;;;;;;1.65;1.00;;;;;;;17.69;73.01;98959.66;4967369;28;20070;-94
2022/09/12 01:36:35;;;;;;;2.88;1.10;;;;;;;17.61;72.25;98965.91;4979122;28;20488;-93
2022/09/12 01:39:07;;;;;;;3.35;1.10;;;;;;;17.40;73.72;98955.72;4959442;28;20030;-94
2022/09/12 01:42:05;;;;;;;1.63;1.20;;;;;;;17.40;74.60;98985.66;4960041;28;20030;-95
2022/09/12 01:44:43;;;;;;;2.78;1.30;;;;;;;17.34;75.69;98989.66;4976786;28;20109;-94
2022/09/12 01:47:14;;;;;;;1.95;1.42;;;;;;;17.15;76.26;98962.81;4977492;28;20022;-93
2022/09/12 01:50:05;;;;;;;2.67;1.50;;;;;;;17.15;76.66;98968.25;4974695;28;20499;-94
2022/09/12 01:52:38;;;;;;;2.30;1.30;;;;;;;17.32;74.94;98961.97;4957301;28;20034;-94
2022/09/12 01:55:09;;;;;;;1.92;1.20;;;;;;;17.28;74.88;98948.22;4961987;28;20034;-93
2022/09/12 01:57:42;;;;;;;2.40;1.42;;;;;;;17.32;74.27;98943.72;4962236;28;20073;-94
2022/09/12 02:00:11;;;;;;;2.88;1.10;;;;;;;17.18;74.58;98921.34;4962803;28;20026;-94
2022/09/12 02:03:34;;;;;;;2.08;1.40;;;;;;;17.21;76.40;98949.84;4961793;28;20042;-95
2022/09/12 02:06:09;;;;;;;1.55;1.20;;;;;;;17.07;75.49;98937.22;4900348;29;20047;-95
2022/09/12 02:08:39;;;;;;;2.50;1.20;;;;;;;17.01;75.50;98952.09;4901456;29;20040;-94
2022/09/12 02:11:09;;;;;;;1.80;1.25;;;;;;;17.00;76.41;98960.59;4885206;29;20074;-93
2022/09/12 02:13:39;;;;;;;2.15;1.38;;;;;;;16.94;76.19;98954.50;4871399;29;20073;-93
2022/09/12 02:16:16;;;;;;;4.18;1.27;;;;;;;17.04;75.52;98962.34;4882480;29;20607;-95
2022/09/12 02:18:47;;;;;;;1.60;1.27;;;;;;;16.93;75.21;98948.28;4880475;29;20114;-93
2022/09/12 02:21:12;;;;;;;1.75;1.10;;;;;;;16.93;75.13;98942.03;4881998;29;20137;-94
2022/09/12 02:23:42;;;;;;;2.30;1.30;;;;;;;16.86;75.57;98937.06;4882016;29;20052;-94
2022/09/12 02:26:11;;;;;;;2.05;1.10;;;;;;;16.89;74.44;98943.78;4882113;29;20139;-94
2022/09/12 02:28:40;;;;;;;2.67;1.40;;;;;;;16.88;76.21;98959.31;4881111;29;20395;-94
2022/09/12 02:31:33;;;;;;;6.53;1.00;;;;;;;16.84;75.20;98963.00;4900295;29;20104;-94
2022/09/12 02:34:14;;;;;;;2.55;1.20;;;;;;;16.99;74.67;98964.44;4916747;29;20043;-94
2022/09/12 02:37:04;;;;;;;1.65;0.90;;;;;;;16.93;73.19;98966.50;4941618;28;20046;-94
2022/09/12 02:39:30;;;;;;;3.45;1.23;;;;;;;16.84;75.08;98961.06;4993993;28;20408;-89
2022/09/12 02:41:58;;;;;;;2.47;1.40;;;;;;;16.86;73.74;98944.44;4975911;28;20034;-90
2022/09/12 02:44:24;;;;;;;1.65;1.20;;;;;;;17.10;73.14;98949.34;4976931;28;20057;-89
2022/09/12 02:46:53;;;;;;;3.55;1.30;;;;;;;17.08;72.60;98948.88;4976390;28;20061;-89
2022/09/12 02:49:19;;;;;;;1.73;1.20;;;;;;;17.16;72.62;98951.63;4941501;28;20039;-89
2022/09/12 02:51:45;;;;;;;2.28;1.30;;;;;;;16.89;74.38;98939.16;4957611;28;20481;-89
2022/09/12 02:54:14;;;;;;;2.05;1.10;;;;;;;16.89;73.73;98936.44;4938423;29;20128;-90
2022/09/12 02:56:42;;;;;;;1.20;1.00;;;;;;;16.94;72.23;98928.09;4938531;28;20537;-89
2022/09/12 02:59:08;;;;;;;2.90;1.23;;;;;;;16.92;72.82;98937.72;4896159;28;1273545;-90
2022/09/12 03:01:51;;;;;;;2.45;1.05;;;;;;;16.89;72.53;98951.94;4923299;29;20522;-90
2022/09/12 03:04:50;;;;;;;4.60;1.20;;;;;;;16.86;73.20;98934.34;4956099;29;20062;-90
2022/09/12 03:07:31;;;;;;;1.90;1.20;;;;;;;16.74;73.01;98931.44;4962699;28;20022;-90
2022/09/12 03:10:08;;;;;;;3.78;1.35;;;;;;;16.85;72.76;98959.97;4979373;28;20041;-90
2022/09/12 03:12:46;;;;;;;3.53;1.20;;;;;;;16.84;72.11;98960.28;4986557;28;20093;-90
2022/09/12 03:15:32;;;;;;;1.25;1.00;;;;;;;16.76;71.53;98940.88;4974264;28;20017;-89
2022/09/12 03:18:13;;;;;;;2.00;1.30;;;;;;;16.77;72.44;98958.00;4959032;28;20031;-89
2022/09/12 03:21:01;;;;;;;3.05;1.25;;;;;;;16.55;72.44;98943.44;4957916;28;20109;-90
2022/09/12 03:23:33;;;;;;;1.75;1.10;;;;;;;16.63;71.19;98932.91;4971784;28;20027;-90
2022/09/12 03:26:06;;;;;;;3.15;1.50;;;;;;;16.56;73.71;98938.81;4941842;28;20075;-90
2022/09/12 03:28:33;;;;;;;5.68;1.50;;;;;;;16.60;73.71;98956.09;4927690;29;20074;-90
2022/09/12 03:30:59;;;;;;;4.03;1.52;;;;;;;16.48;73.70;98948.56;4939106;29;20028;-90
2022/09/12 03:33:25;;;;;;;6.68;1.50;;;;;;;16.36;73.94;98937.50;4938228;29;20027;-90
2022/09/12 03:35:51;;;;;;;1.65;1.20;;;;;;;16.31;74.74;98943.06;4922243;29;20413;-90
2022/09/12 03:38:17;;;;;;;3.28;1.80;;;;;;;16.26;74.55;98951.38;4931297;29;20031;-89
2022/09/12 03:40:42;;;;;;;1.83;1.15;;;;;;;16.25;73.67;98947.06;4923075;29;20023;-90
2022/09/12 03:43:08;;;;;;;2.67;1.35;;;;;;;16.12;75.35;98940.63;4922767;29;20038;-90
2022/09/12 03:45:34;;;;;;;2.65;1.40;;;;;;;16.12;75.18;98954.22;4922256;29;20031;-89
2022/09/12 03:48:00;;;;;;;8.18;1.70;;;;;;;16.10;75.26;98953.72;4938714;29;20066;-90
2022/09/12 03:50:27;;;;;;;3.75;1.50;;;;;;;16.18;74.03;98955.69;4938793;29;20138;-89
2022/09/12 03:52:52;;;;;;;4.15;1.60;;;;;;;16.23;73.26;98974.56;4937340;28;20050;-90
2022/09/12 03:58:46;;;;;;;2.50;1.05;;;;;;;16.14;71.85;98960.13;5008668;28;20106;-91
2022/09/12 04:01:15;;;;;;;3.55;1.30;;;;;;;16.14;71.47;98960.13;4985153;28;20045;-90
2022/09/12 04:03:47;;;;;;;3.70;1.63;;;;;;;16.16;72.05;98980.47;4974987;28;20026;-96
2022/09/12 04:09:37;;;;;;;10.05;1.20;;;;;;;16.16;70.78;98971.50;5027594;28;20036;-95
2022/09/12 04:12:24;;;;;;;1.42;1.15;;;;;;;16.16;70.41;98964.16;4999056;28;20064;-96
2022/09/12 04:15:06;;;;;;;2.35;1.30;;;;;;;16.34;70.29;98992.16;5032395;28;20118;-96
2022/09/12 04:17:36;;;;;;;4.00;1.23;;;;;;;16.41;68.52;98988.19;5047826;23;20041;-96
2022/09/12 04:20:02;;;;;;;1.45;1.00;;;;;;;16.25;69.46;98961.47;5004772;28;20065;-95
2022/09/12 04:22:33;;;;;;;6.13;1.40;;;;;;;16.39;69.37;98980.34;4989024;28;20040;-96
2022/09/12 04:24:59;;;;;;;4.03;1.30;;;;;;;16.34;70.08;98975.84;5007358;28;20037;-96
2022/09/12 04:27:24;;;;;;;3.55;1.33;;;;;;;16.35;70.10;98982.91;4988702;28;20040;-95
2022/09/12 04:29:49;;;;;;;6.80;1.80;;;;;;;16.24;70.40;98961.78;5005364;28;20040;-95
2022/09/12 04:32:17;;;;;;;2.25;1.73;;;;;;;16.19;69.70;98961.94;4990102;28;20025;-94
2022/09/12 04:34:43;;;;;;;3.40;1.40;;;;;;;16.39;70.29;98972.19;4987070;28;20026;-95
2022/09/12 04:37:10;;;;;;;2.33;1.33;;;;;;;16.56;68.46;98995.91;5018979;28;20471;-92
2022/09/12 04:39:36;;;;;;;2.95;1.58;;;;;;;16.51;69.21;98983.22;4987999;28;20025;-94
2022/09/12 04:42:03;;;;;;;2.45;1.60;;;;;;;16.54;69.45;98976.38;4988594;28;20033;-94
2022/09/12 04:44:29;;;;;;;1.90;1.13;;;;;;;16.70;67.85;98977.50;4987791;28;20099;-96
2022/09/12 04:46:55;;;;;;;15.88;9.95;;;;;;;16.73;68.29;98985.03;4987447;28;20108;-92
2022/09/12 04:49:21;;;;;;;4.47;1.75;;;;;;;16.75;66.78;98977.34;4985476;28;20107;-94
2022/09/12 04:51:52;;;;;;;6.53;1.60;;;;;;;16.68;68.54;98970.78;4987808;28;20116;-95
2022/09/12 04:54:21;;;;;;;3.65;1.85;;;;;;;16.94;67.98;99006.97;4999288;28;20033;-96
2022/09/12 04:56:49;;;;;;;4.95;1.33;;;;;;;17.02;66.98;99001.88;4990795;28;20116;-95
2022/09/12 04:59:16;;;;;;;2.33;1.00;;;;;;;16.85;65.35;98962.69;4988473;28;20032;-96
2022/09/12 05:02:24;;;;;;;6.00;1.20;;;;;;;17.06;66.33;99000.91;4990308;28;20018;-96
2022/09/12 05:04:55;;;;;;;1.90;1.40;;;;;;;16.89;66.29;98973.69;5026050;28;20041;-96
2022/09/12 05:14:13;;;;;;;4.88;1.20;;;;;;;17.02;66.73;98980.91;5091355;22;20050;-96
2022/09/12 05:16:46;;;;;;;4.60;1.60;;;;;;;17.19;66.19;98979.31;4997743;28;20041;-96
2022/09/12 05:19:13;;;;;;;5.45;2.00;;;;;;;17.44;65.80;99008.38;4992150;23;20047;-96
2022/09/12 05:21:45;;;;;;;1.80;1.17;;;;;;;17.28;64.93;98988.25;4931742;29;20027;-95
2022/09/12 05:24:11;;;;;;;;;;;;;;;17.51;63.92;99002.44;4960896;28;20412;-96
2022/09/12 05:29:33;;;;;;;1.50;0.70;;;;;;;17.52;62.28;98998.63;4932700;29;20036;-94
2022/09/12 05:31:59;;;;;;;2.08;1.05;;;;;;;17.50;63.31;99012.53;4954213;29;20019;-95
2022/09/12 05:34:24;;;;;;;4.32;1.35;;;;;;;17.40;64.73;98995.75;4940496;29;20518;-94
2022/09/12 05:36:50;;;;;;;5.32;1.42;;;;;;;17.42;64.75;99004.41;4922027;29;20083;-96
2022/09/12 05:39:19;;;;;;;2.40;1.63;;;;;;;17.33;64.47;98983.44;4924073;29;20043;-96
2022/09/12 05:44:24;;;;;;;2.15;1.00;;;;;;;17.50;63.86;99004.38;5075616;23;20070;-95
2022/09/12 05:46:52;;;;;;;3.20;1.20;;;;;;;17.48;64.35;98997.66;4976519;28;20023;-96
2022/09/12 05:49:20;;;;;;;2.28;1.48;;;;;;;17.63;63.61;99009.94;4972013;28;20022;-96
2022/09/12 05:52:06;;;;;;;2.10;1.02;;;;;;;17.88;61.78;99025.44;4974856;23;20082;-93
2022/09/12 05:54:33;;;;;;;0.93;0.82;;;;;;;18.01;60.44;99015.44;4933228;29;20122;-94
2022/09/12 05:57:00;;;;;;;1.77;0.90;;;;;;;18.01;60.65;98990.94;4943360;29;20454;-93
2022/09/12 05:59:29;;;;;;;2.05;1.00;;;;;;;18.02;61.33;99000.72;4936329;29;20042;-96
2022/09/12 06:02:15;;;;;;;1.80;1.10;;;;;;;18.13;61.45;99018.28;4952005;29;20095;-94
2022/09/12 06:04:44;;;;;;;1.23;0.82;;;;;;;18.27;59.71;99015.34;4947176;29;20045;-93
2022/09/12 06:07:10;;;;;;;1.60;0.70;;;;;;;18.37;58.38;99012.25;4934043;28;20045;-91
2022/09/12 06:09:35;;;;;;;1.23;0.77;;;;;;;18.47;59.09;99022.00;4918068;28;20030;-96
2022/09/12 06:12:01;;;;;;;4.50;2.05;;;;;;;18.55;58.58;99025.78;4948267;28;20037;-94
2022/09/12 06:14:29;;;;;;;4.82;1.15;;;;;;;18.33;60.08;99005.06;4927653;28;20049;-93
2022/09/12 06:17:09;;;;;;;0.60;0.60;;;;;;;18.43;58.33;98992.97;4943737;29;20043;-96
2022/09/12 06:19:34;;;;;;;2.10;1.30;;;;;;;18.37;59.20;99001.34;4956726;29;20046;-93
2022/09/12 06:24:47;;;;;;;4.07;1.10;;;;;;;18.52;58.45;99019.06;4904254;29;20043;-93
2022/09/12 06:27:13;;;;;;;0.85;0.60;;;;;;;18.68;57.26;99026.69;4959693;28;20034;-96
2022/09/12 06:29:45;;;;;;;1.63;0.60;;;;;;;18.60;57.42;99009.22;4927707;28;20134;-93
2022/09/12 06:32:41;;;;;;;3.40;2.38;;;;;;;18.87;57.20;99028.97;4949873;28;20031;-96
2022/09/12 06:35:11;;;;;;;0.80;0.80;;;;;;;18.71;56.61;99009.63;4958088;28;20058;-94
2022/09/12 06:37:44;;;;;;;1.70;0.70;;;;;;;18.88;56.39;99019.66;4920790;29;20023;-96
2022/09/12 06:40:17;;;;;;;3.97;1.23;;;;;;;18.88;56.18;99012.25;4980070;28;20508;-96
2022/09/12 06:42:44;;;;;;;3.35;1.10;;;;;;;18.86;56.59;99013.72;4944904;29;20021;-95
2022/09/12 06:45:11;;;;;;;2.88;1.20;;;;;;;18.95;55.71;99037.09;4925457;29;20497;-95
2022/09/12 06:47:38;;;;;;;1.60;0.98;;;;;;;18.87;55.38;99027.03;4931463;29;20030;-96
2022/09/12 06:50:06;;;;;;;4.65;1.17;;;;;;;18.76;57.02;99023.09;4913744;29;20489;-95
2022/09/12 06:52:32;;;;;;;3.38;1.45;;;;;;;18.82;57.06;98999.16;4931345;28;20097;-96
2022/09/12 06:55:11;;;;;;;3.47;1.92;;;;;;;18.96;56.98;99014.13;4942897;28;20047;-96
2022/09/12 06:57:37;;;;;;;1.60;1.10;;;;;;;18.92;56.73;99004.22;4964199;28;20413;-96
2022/09/12 07:00:29;;;;;;;0.90;0.70;;;;;;;19.16;56.17;99026.16;4973700;28;20026;-96
2022/09/12 07:02:57;;;;;;;2.33;1.60;;;;;;;19.14;55.83;98995.69;4945980;29;20058;-93
2022/09/12 07:05:23;;;;;;;6.28;1.55;;;;;;;19.32;55.88;99000.97;4925049;29;20067;-95
2022/09/12 07:07:49;;;;;;;6.53;1.52;;;;;;;19.43;55.55;99006.84;4924758;29;20035;-94
2022/09/12 07:10:52;;;;;;;6.00;2.03;;;;;;;19.52;53.93;99011.06;4917007;29;20058;-96
2022/09/12 07:13:58;;;;;;;;;;;;;;;;;;;;;
2022/09/12 07:16:31;;;;;;;1.60;0.70;;;;;;;19.72;52.58;98995.00;4946219;29;20610;-92
2022/09/12 07:19:09;;;;;;;1.80;1.20;;;;;;;19.82;53.65;98997.28;4908061;29;20395;-96
2022/09/12 07:21:40;;;;;;;2.78;0.90;;;;;;;19.92;52.90;99002.31;4944546;29;20042;-95
2022/09/12 07:27:24;;;;;;;3.92;2.72;;;;;;;20.17;50.75;99022.25;4952154;28;20604;-95
2022/09/12 07:30:43;;;;;;;;;;;;;;;;;;;;;
2022/09/12 07:33:13;;;;;;;1.85;0.70;;;;;;;20.36;50.60;99015.44;4982923;28;20110;-95
2022/09/12 07:35:41;;;;;;;2.83;0.80;;;;;;;20.28;49.43;99006.19;4963814;29;20123;-96
2022/09/12 07:38:09;;;;;;;1.40;0.55;;;;;;;20.22;49.11;99001.31;4968636;28;20136;-95
2022/09/12 07:40:35;;;;;;;1.20;0.80;;;;;;;20.18;49.73;98999.22;4966523;29;20027;-94
2022/09/12 07:43:09;;;;;;;7.88;3.80;;;;;;;20.35;49.79;99017.34;4947999;29;20027;-94
2022/09/12 07:45:41;;;;;;;1.10;0.68;;;;;;;20.18;48.72;98991.03;4931947;29;20066;-95
2022/09/12 07:48:09;;;;;;;;;;;;;;;20.46;48.79;99028.63;4949380;29;20090;-94
2022/09/12 07:50:35;;;;;;;0.95;0.73;;;;;;;20.41;48.83;99001.50;4941765;28;20292;-94
2022/09/12 07:53:02;;;;;;;1.67;0.70;;;;;;;20.47;49.44;98993.88;4932576;28;20046;-93
2022/09/12 07:55:29;;;;;;;2.58;0.60;;;;;;;20.48;48.05;98996.28;4931901;28;20026;-93
2022/09/12 07:57:57;;;;;;;0.60;0.60;;;;;;;20.64;47.50;98996.38;4942007;28;20034;-95
2022/09/12 08:00:23;;;;;;;1.13;0.60;;;;;;;20.73;47.24;98998.97;4960077;28;20105;-93
2022/09/12 08:02:57;;;;;;;0.85;0.63;;;;;;;20.77;47.33;98978.00;4958572;28;20480;-94
2022/09/12 08:05:23;;;;;;;1.30;0.50;;;;;;;20.99;46.93;98988.41;4925537;28;20034;-93
2022/09/12 08:07:51;;;;;;;0.82;0.60;;;;;;;20.94;46.48;98980.47;4944172;28;20122;-93
2022/09/12 08:13:18;;;;;;;0.85;0.60;;;;;;;21.25;46.62;98983.63;4977279;28;20034;-96
2022/09/12 08:15:44;;;;;;;1.00;0.60;;;;;;;21.19;46.50;98985.84;4954948;28;20019;-96
2022/09/12 08:18:51;;;;;;;1.38;0.90;;;;;;;21.37;45.86;98980.84;4953309;28;20019;-96
2022/09/12 08:24:28;;;;;;;3.83;1.00;;;;;;;21.63;46.23;98987.81;4979294;28;20039;-96
2022/09/12 08:30:12;;;;;;;1.15;0.70;;;;;;;21.49;44.87;98983.53;4960379;28;20023;-95
2022/09/12 08:33:06;;;;;;;20.50;12.23;;;;;;;21.58;46.55;98962.28;4959007;28;20027;-96
2022/09/12 08:35:32;;;;;;;1.40;0.90;;;;;;;21.77;45.16;98979.97;4980987;28;20023;-95
2022/09/12 08:38:00;;;;;;;0.85;0.60;;;;;;;21.67;44.91;98956.63;4953608;28;20043;-95
2022/09/12 08:40:30;;;;;;;0.55;0.55;;;;;;;21.82;44.00;98959.72;4973240;28;20498;-96
2022/09/12 08:53:58;;;;;;;1.00;0.63;;;;;;;22.19;43.74;98965.72;4873838;29;20270;-96
2022/09/12 08:56:28;;;;;;;1.55;0.90;;;;;;;22.03;42.88;98937.50;4869143;29;20409;-94
2022/09/12 08:58:54;;;;;;;1.15;0.73;;;;;;;22.12;42.67;98943.59;4882775;29;20047;-95
2022/09/12 09:04:50;;;;;;;1.55;0.80;;;;;;;22.18;43.26;98933.94;4978860;28;20031;-95
2022/09/12 09:07:47;;;;;;;1.23;1.02;;;;;;;22.30;43.55;98949.53;4953320;29;20041;-96
2022/09/12 09:10:40;;;;;;;1.17;0.90;;;;;;;22.31;43.11;98953.88;4968179;29;20040;-95
2022/09/12 09:16:30;;;;;;;1.23;1.00;;;;;;;22.49;40.92;98916.63;4949839;29;20042;-96
2022/09/12 09:19:17;;;;;;;;;;;;;;;;;;;;;
2022/09/12 09:22:34;;;;;;;2.03;1.13;;;;;;;22.47;41.17;98940.09;4881651;29;20116;-95
2022/09/12 09:51:57;;;;;;;1.48;0.90;;;;;;;22.72;40.36;98913.19;5021312;28;20108;-93
2022/09/12 09:54:59;;;;;;;0.95;0.77;;;;;;;22.72;40.71;98894.78;4982030;28;20061;-94
2022/09/12 10:01:47;;;;;;;0.95;0.80;;;;;;;22.96;39.22;98929.34;5018396;28;20124;-96
2022/09/12 10:11:25;;;;;;;;;;;;;;;23.00;39.14;98932.97;4997525;28;20072;-96
2022/09/12 10:14:40;;;;;;;1.50;0.80;;;;;;;22.97;40.40;98925.47;5116430;23;20013;-96
2022/09/12 10:17:29;;;;;;;2.63;1.00;;;;;;;22.92;40.21;98913.97;5095490;23;20054;-96
2022/09/12 10:20:11;;;;;;;3.38;2.45;;;;;;;22.86;39.22;98915.44;4985016;28;20034;-94
2022/09/12 10:22:48;;;;;;;1.10;0.80;;;;;;;23.08;39.37;98903.72;4969774;28;20026;-93
2022/09/12 10:25:17;;;;;;;1.00;0.88;;;;;;;23.22;39.30;98914.16;4970044;28;20042;-93
2022/09/12 10:27:43;;;;;;;1.42;0.65;;;;;;;23.18;37.47;98907.84;4963301;28;20073;-95
2022/09/12 10:30:26;;;;;;;0.60;0.60;;;;;;;23.37;37.06;98932.50;4967929;28;20108;-95
2022/09/12 10:33:14;;;;;;;1.95;0.70;;;;;;;23.28;37.27;98925.66;4965774;28;20042;-93
2022/09/12 10:46:34;;;;;;;1.38;1.00;;;;;;;23.18;38.91;98941.59;4963076;29;20079;-96
2022/09/12 10:52:28;;;;;;;1.35;0.90;;;;;;;23.33;38.55;98919.88;5003018;28;20038;-94
2022/09/12 10:55:14;;;;;;;2.40;0.90;;;;;;;23.40;39.20;98912.53;4968136;28;20030;-95
2022/09/12 10:58:20;;;;;;;2.30;1.70;;;;;;;23.51;40.25;98936.66;4984510;28;20668;-95
2022/09/12 11:00:49;;;;;;;1.58;1.00;;;;;;;23.22;38.37;98916.13;4985995;28;20110;-95
2022/09/12 11:03:46;;;;;;;2.58;1.38;;;;;;;23.43;38.01;98927.53;4989988;28;20547;-94
2022/09/12 11:06:11;;;;;;;1.48;0.80;;;;;;;23.48;38.12;98924.47;4989698;28;20026;-94
2022/09/12 11:12:26;;;;;;;1.50;0.80;;;;;;;23.65;36.71;98911.38;5172076;23;20515;-94
2022/09/12 11:19:10;;;;;;;1.15;0.85;;;;;;;23.40;37.30;98911.75;5012333;28;20121;-96
2022/09/12 11:22:16;;;;;;;0.98;0.90;;;;;;;23.34;38.34;98926.94;5006764;28;20038;-95
2022/09/12 11:25:19;;;;;;;1.65;0.95;;;;;;;23.19;38.13;98898.44;5005224;28;20115;-94
2022/09/12 11:28:22;;;;;;;0.70;0.70;;;;;;;23.18;37.81;98905.88;4986420;28;20026;-91
2022/09/12 11:31:35;;;;;;;;;;;;;;;;;;;;;
2022/09/12 11:34:09;;;;;;;2.72;1.75;;;;;;;23.15;37.95;98912.09;5008094;28;20068;-96
2022/09/12 11:37:16;;;;;;;2.15;0.88;;;;;;;23.36;37.90;98922.66;4974719;28;20042;-93
2022/09/12 11:39:54;;;;;;;1.63;1.10;;;;;;;23.47;37.91;98924.81;4984123;28;20464;-95
2022/09/12 11:42:28;;;;;;;1.77;1.30;;;;;;;23.63;38.26;98905.47;4998542;28;20038;-94
2022/09/12 11:45:14;;;;;;;2.17;1.20;;;;;;;23.48;35.99;98880.50;5011633;28;20029;-94
2022/09/12 11:47:49;;;;;;;1.73;1.13;;;;;;;23.80;35.91;98897.53;4984379;28;20077;-92
2022/09/12 11:50:35;;;;;;;3.45;1.30;;;;;;;23.80;36.44;98875.56;4998058;28;20037;-90
2022/09/12 11:53:23;;;;;;;1.50;1.20;;;;;;;23.79;36.64;98881.41;4986303;28;20026;-93
2022/09/12 11:55:53;;;;;;;5.22;1.90;;;;;;;23.94;37.54;98887.91;4961372;28;20034;-92
2022/09/12 11:58:24;;;;;;;4.03;1.35;;;;;;;23.93;36.54;98873.38;4976873;28;20034;-94
2022/09/12 12:00:56;;;;;;;2.70;1.63;;;;;;;23.96;37.25;98888.34;4977095;28;20597;-91
2022/09/12 12:03:33;;;;;;;1.33;1.00;;;;;;;24.28;34.95;98899.00;4966088;28;20092;-94
2022/09/12 12:06:24;;;;;;;2.75;1.20;;;;;;;24.29;34.95;98895.88;4975947;28;20038;-88
2022/09/12 12:08:50;;;;;;;1.70;1.23;;;;;;;24.07;34.89;98888.50;4974013;28;20038;-88
2022/09/12 12:11:34;;;;;;;1.23;1.10;;;;;;;24.14;35.69;98886.66;4973616;28;20077;-88
2022/09/12 12:14:26;;;;;;;25.33;21.27;;;;;;;24.04;37.46;98878.25;4960664;28;20106;-90
2022/09/12 12:16:51;;;;;;;8.32;5.25;;;;;;;24.07;36.43;98877.50;5026373;28;20092;-94
2022/09/12 12:20:08;;;;;;;2.22;1.60;;;;;;;23.95;36.78;98900.53;4992761;28;20038;-92
2022/09/12 12:23:21;;;;;;;1.20;1.00;;;;;;;23.62;36.54;98882.69;4986571;28;20030;-93
2022/09/12 12:25:51;;;;;;;1.65;1.35;;;;;;;23.31;37.74;98870.78;4925611;29;20058;-92
2022/09/12 12:29:12;;;;;;;;;;;;;;;;;;;;;
2022/09/12 12:32:28;;;;;;;2.35;1.70;;;;;;;23.43;37.99;98893.72;5009055;28;20048;-93
2022/09/12 12:38:39;;;;;;;1.98;1.60;;;;;;;23.13;38.16;98875.16;5012083;28;20121;-89
2022/09/12 12:45:10;;;;;;;1.55;1.20;;;;;;;23.10;38.03;98887.69;4975457;28;20085;-95
2022/09/12 12:47:39;;;;;;;1.55;1.30;;;;;;;23.18;36.50;98886.66;4980657;28;20038;-94
2022/09/12 12:50:39;;;;;;;3.35;2.22;;;;;;;23.12;36.98;98879.88;4998540;28;20030;-93
2022/09/12 12:53:27;;;;;;;5.47;1.27;;;;;;;23.18;37.30;98880.38;4973853;28;20029;-94
2022/09/12 12:56:29;;;;;;;2.28;1.40;;;;;;;23.14;37.21;98872.06;5000655;28;20045;-94
2022/09/12 12:58:58;;;;;;;;;;;;;;;23.25;36.96;98887.94;4943713;28;20037;-92
2022/09/12 13:01:24;;;;;;;2.75;1.58;;;;;;;23.13;37.21;98878.69;4998904;28;20051;-93
2022/09/12 13:04:02;;;;;;;1.80;1.40;;;;;;;23.09;37.73;98872.34;4988855;28;20244;-93
2022/09/12 13:06:39;;;;;;;2.80;2.10;;;;;;;23.09;37.69;98869.59;4983210;28;20076;-94
2022/09/12 13:09:08;;;;;;;3.67;1.75;;;;;;;23.18;38.34;98885.88;4982435;28;20098;-93
2022/09/12 13:11:46;;;;;;;2.33;1.77;;;;;;;23.14;38.09;98860.28;5000193;28;20045;-94
2022/09/12 13:14:42;;;;;;;2.42;2.20;;;;;;;23.46;38.51;98882.81;4965797;28;20026;-93
2022/09/12 13:17:19;;;;;;;2.63;1.83;;;;;;;23.54;36.60;98857.03;5007284;28;20041;-93
2022/09/12 13:19:50;;;;;;;2.22;1.70;;;;;;;23.71;36.78;98854.94;4943571;28;20382;-91
2022/09/12 13:22:15;;;;;;;1.70;1.50;;;;;;;23.80;35.56;98847.25;4963071;28;20018;-92
2022/09/12 13:25:21;;;;;;;5.03;1.90;;;;;;;23.89;36.60;98858.78;4979538;28;20487;-91
2022/09/12 13:28:27;;;;;;;4.00;1.90;;;;;;;24.20;35.86;98882.41;4967433;28;20022;-90
2022/09/12 13:31:06;;;;;;;2.55;1.45;;;;;;;24.34;35.70;98847.97;4968818;28;20026;-88
2022/09/12 13:38:08;;;;;;;2.45;1.70;;;;;;;24.23;36.11;98833.31;4978520;28;20029;-94
2022/09/12 13:41:24;;;;;;;3.50;1.85;;;;;;;24.40;35.68;98879.50;4951564;28;20035;-95
2022/09/12 13:43:55;;;;;;;1.88;1.48;;;;;;;24.44;34.59;98858.34;4972426;28;20039;-96
2022/09/12 13:46:28;;;;;;;3.20;1.50;;;;;;;24.52;34.31;98862.00;4962664;28;20117;-96
2022/09/12 13:49:03;;;;;;;1.83;1.48;;;;;;;24.32;34.98;98878.66;4978857;28;20031;-94
2022/09/12 13:52:07;;;;;;;;;;;;;;;;;;;;;
2022/09/12 13:57:58;;;;;;;;;;;;;;;24.08;35.33;98888.13;5436828;23;20182;-95
2022/09/12 14:00:24;;;;;;;2.72;1.73;;;;;;;23.79;35.80;98867.66;5118986;23;19937;-96
2022/09/12 14:10:10;;;;;;;;;;;;;;;;;;;;;
2022/09/12 14:13:34;;;;;;;3.47;1.52;;;;;;;23.18;38.02;98897.66;4957357;28;20110;-95
2022/09/12 14:16:15;;;;;;;3.55;2.38;;;;;;;22.91;39.45;98873.94;4947306;29;20050;-96
2022/09/12 14:19:18;;;;;;;2.88;1.85;;;;;;;22.77;39.13;98872.53;4942793;28;20035;-96
2022/09/12 14:21:49;;;;;;;7.00;2.35;;;;;;;22.80;40.20;98885.50;4983350;28;20034;-95
2022/09/12 14:24:15;;;;;;;8.02;5.80;;;;;;;22.72;39.71;98880.25;4986854;28;20033;-96
2022/09/12 14:26:49;;;;;;;5.50;2.80;;;;;;;22.63;39.99;98863.22;4979542;28;20072;-95
2022/09/12 14:29:20;;;;;;;2.33;1.88;;;;;;;22.76;39.40;98883.84;5006982;28;20036;-96
2022/09/12 14:31:49;;;;;;;2.65;1.80;;;;;;;22.60;39.44;98870.22;4990929;28;20459;-96
2022/09/12 14:34:27;;;;;;;2.30;1.75;;;;;;;22.51;40.14;98861.41;5029754;28;20029;-96
2022/09/12 14:36:59;;;;;;;2.17;1.52;;;;;;;22.62;39.69;98875.34;5014026;28;20048;-96
2022/09/12 14:39:42;;;;;;;2.50;1.80;;;;;;;22.72;39.67;98877.50;5027663;28;20092;-95
2022/09/12 14:42:43;;;;;;;2.28;1.80;;;;;;;22.61;40.12;98871.81;5007450;28;20459;-94